Race Coverage Navigation

TS # 2 / Brawley, CA  2019

 


TS STATS
TS Distance 57 
Total Distance 145.39 
Miles To Go 2924.89 
TS Climbing 145 
Total Climbing
TS  Elevation
TS  Net Elevation 234 
Map Filename Open Map 
Directions Filename  
Latitude 32.98 
Longitude -115.55 
Google Map  TimeStation Map 


TS Arrival Data
Arr Ord  #/Name Arrival DT TS Dst Avg This TS Avg Overall Ascending
 1 R101 - Bobby Klatt  06/12/2019 4:39 57  11.36  11.11 
 2 491 - BOURREAU JACQUES  06/12/2019 5:06 57  9.45  11.54 
 3 R87 - Spoke Life Cycles / TRD (Lucas Spencer)  06/12/2019 4:01 57  10.65  11.69 
 4 R102 - Build-A-Bike (Adam Kidd)  06/12/2019 3:29 57  13.9  12.18 
 5 R117 - ROGIE (Roger Foote)  06/12/2019 2:56 57  12.39  12.59 
 6 R112 - John Hoopingarner  06/12/2019 2:53 57  15  12.72 
 7 R113 - Kerry Dragon  06/12/2019 2:42 57  13.36  12.9 
 8 614 - Per Nielsen  06/12/2019 3:05 57  12.57  13.44 
 9 424 - Team i RON man Veterans supporting Veterans  06/12/2019 3:18 57  15.48  13.5 
 10 605 - Christian Echavarria  06/12/2019 3:04 57  14.81  13.59 
 11 R114 - Krishna Prakash  06/12/2019 2:04 57  16.06  13.65 
 12 563 - Team Nico Ultracycling - In Fight against Cancer   06/12/2019 3:01 57  15.41  13.72 
 13 R84 - James Jason Ingels  06/12/2019 2:07 57  14.68  13.82 
 14 R119 - Team BlueLine (Martha Hall)  06/12/2019 1:39 57  17.36  13.98 
 15 610 - Kabir Rachure  06/12/2019 2:28 57  14.19  14.35 
 16 R207 - We Might Make It!  06/12/2019 1:09 57  15.91  14.47 
 17 510 - John C. Tarlton  06/12/2019 2:30 57  14.37  14.51 
 18 R120 - Team Next Step (Peter Pedersen)  06/12/2019 1:19 57  13.9  14.61 
 19 T409 - Serpentine Golden Girls  06/16/2019 1:15 57  16.21  14.64 
 20 R110 - James Golding  06/12/2019 1:24 57  15.62  14.64 
 21 R116 - Philippe May  06/12/2019 1:20 57  14.74  14.64 
 22 R105 - 2nd Chance Racing (Craig Johnson)  06/12/2019 1:24 57  14.68  14.69 
 23 411 - Geoff Brunner  06/12/2019 2:27 57  18.49  14.69 
 24 527 - TALABARDON (Herve Talabardon)  06/12/2019 2:21 57  15.13  14.71 
 25 T210 - Bike Wine Team  06/16/2019 1:01 57  16.76  14.74 
 26 611 - Marcelo Soares " MIXIRICA "  06/12/2019 2:02 57  18.29  14.96 
 27 607 - Sabine Bird (Team Bean)  06/12/2019 1:44 57  15.48  14.99 
 28 367 - Daniela Genovesi  06/12/2019 1:48 57  12.76  15.01 
 29 R108 - Eric C Pearce  06/12/2019 1:09 57  14.87  15.04 
 30 608 - Elin Starup  06/12/2019 1:40 57  16.13  15.07 
 31 R103 - Chris Davies  06/12/2019 1:06 57  16.29  15.2 
 32 R104 - Team everve Christian (Christian Beichel)  06/12/2019 1:02 57  17.63  15.28 
 33 618 - GREGORY ROBINSON  06/12/2019 1:42 57  15  15.33 
 34 R106 - Damaceleste.com (Valentina Tanzi)  06/12/2019 0:47 57  16.06  15.36 
 35 620 - Team Jefferson (Allan Jefferson)  06/12/2019 1:36 57  14.07  15.47 
 36 539 - Kari Rouvinen  06/12/2019 1:51 57  16.93  15.47 
 37 R209 - Workhorses  06/12/2019 0:29 57  16.93  15.47 
 38 R115 - Kym Louie  06/12/2019 0:38 57  15.69  15.52 
 39 568 - Alexandra Meixner  06/12/2019 1:21 57  19.32  15.66 
 40 R122 - Kirk Gentle  06/12/2019 0:36 57  15.83  15.72 
 41 T203 - JPsDuo  06/16/2019 0:17 57  16.44  15.75 
 42 R121 - Ironmae (Rosecler Costa)  06/12/2019 0:26 57  17.1  15.8 
 43 T208 - Team Machine  06/16/2019 0:18 57  14.93  15.86 
 44 399 - Valerio Zamboni  06/12/2019 1:41 57  17.01  15.95 
 45 161 - Seana Hogan  06/12/2019 1:14 57  18  15.98 
 46 416 - Leah Goldstein  06/12/2019 1:10 57  17.19  16.04 
 47 604 - Chieko Ozawa  06/12/2019 1:03 57  18.29  16.15 
 48 R124 - Andres Rodriguez  06/12/2019 0:16 57  16.76  16.24 
 49 T806 - Team SuperMarrow  06/16/2019 0:30 57  15.98  16.31 
 50 T801 - Mind Over Matter  06/16/2019 0:24 57  18.69  16.34 
 51 329 - Peter Oyler  06/12/2019 1:30 57  16.85  16.34 
 52 T414 - Brazil Nuts  06/16/2019 0:12 57  17.01  16.52 
 53 T417 - Team4RAAM 2019 powered by TGW Living Logistics  06/16/2019 0:14 57  16.13  16.55 
 54 559 - Team Martin RAAM 2019 (Martin Bergmeister)  06/12/2019 1:09 57  18.49  16.68 
 55 T205 - Prevent Breast Cancer powered by Endomag  06/15/2019 23:47 57  15.98  16.71 
 56 T402 - EA/WFP RAAM Team  06/15/2019 23:53 57  20.12  16.74 
 57 R51 - Fabio Silvestri  06/12/2019 0:15 57  14.81  16.84 
 58 603 - Alan Bradley  06/12/2019 1:00 57  18.59  16.87 
 59 T410 - Soap-Aid  06/15/2019 23:57 57  15.83  16.87 
 60 R203 - Mike 'n' Jay Giretto con Amici  06/11/2019 23:46 57  17.81  16.87 
 61 R111 - Jennifer Orr  06/11/2019 23:52 57  10.93  16.94 
 62 621 - Themsen Ultracycling (Jacob Themsen)  06/12/2019 0:44 57  17.27  17 
 63 R202 - Laureus Alegra  06/11/2019 23:41 57  17.27  17.07 
 64 T413 - TEAM BRASIL - SKIPPER  06/15/2019 23:54 57  17.01  17.07 
 65 T405 - High Rollers  06/15/2019 23:44 57  16.36  17.14 
 66 T204 - Lucan CRC  06/15/2019 23:33 57  16.36  17.14 
 67 622 - Thomas Odom-Team Kyle Pease Foundation  06/12/2019 0:36 57  18.79  17.24 
 68 R201 - IN OUR PRIME  06/11/2019 23:36 57  17.45  17.27 
 69 529 - Isa Pulver  06/12/2019 0:29 57  19.21  17.31 
 70 442 - Joe Barr  06/12/2019 0:52 57  15.41  17.41 
 71 T415 - TEAM FIRE VELO 935  06/15/2019 23:44 57  17.91  17.48 
 72 R402 - SUWOS  06/11/2019 23:20 57  19.54  17.52 
 73 615 - Philipp Amhof  06/12/2019 0:33 57  20.73  17.52 
 74 T803 - Team EndoPark  06/15/2019 23:48 57  23.92  17.59 
 75 R400 - HTX Velo Femme  06/11/2019 23:19 57  18.79  17.62 
 76 T207 - Team Life Time  06/15/2019 23:21 57  16.13  17.66 
 77 623 - Ultra Paka Racing Team (Daniel Polman)  06/12/2019 0:21 57  18.19  17.73 
 78 612 - Markus K. Brandl  06/12/2019 0:28 57  18.69  17.8 
 79 T406 - Operation Walk Midwest  06/15/2019 23:22 57  18.39  17.95 
 80 617 - SOLO.kiwi (Craig Harper)  06/12/2019 0:18 57  18.49  18.02 
 81 288 - Dave Haase  06/12/2019 0:38 57  19.66  18.14 
 82 T808 - Antonia's Friends 2019  06/15/2019 23:30 57  18.49  18.44 
 83 349 - Mark Pattinson  06/12/2019 0:27 57  19.66  18.48 
 84 594 - Mauerhofer Thomas  06/12/2019 0:15 57  19.21  18.48 
 85 T802 - Scorchers  06/15/2019 23:22 57  18.49  18.52 
 86 R205 - Team OB2  06/11/2019 22:59 57  19.43  18.52 
 87 609 - Jakob Olsen  06/12/2019 0:10 57  20.48  18.6 
 88 T804 - Team FSHD Skyland Trail  06/15/2019 23:22 57  17.81  18.6 
 89 T206 - Project Linear Acceleration  06/15/2019 22:55 57  19.11  18.6 
 90 T418 - The Opportunists  06/15/2019 23:17 57  21.11  18.6 
 91 T400 - Cantastic4  06/15/2019 22:59 57  21.11  18.6 
 92 T416 - Team Rotary Raams Polio  06/15/2019 23:14 57  18.59  18.64 
 93 R401 - San Diego Sports Medicine/Zoca  06/11/2019 22:51 57  18.9  18.64 
 94 T202 - Integra Medical - BAA Racing  06/15/2019 22:44 57  19.66  18.88 
 95 T403 - EKJ Denmark  06/15/2019 22:54 57  19.11  18.92 
 96 T408 - Radeln-fuer-Kinder (Cycling-for-Kids)  06/15/2019 22:56 57  18.69  19.05 
 97 T200 - AIR RELAX GoPro TEAM BRASIL  06/15/2019 22:33 57  21.11  19.26 
 98 T407 - Julian Becker   06/15/2019 22:49 57  17.19  19.3 
 99 T805 - Team Oceanside  06/15/2019 23:06 57  19.66  19.3 
 100 T807 - Team ZOE International  06/15/2019 23:05 57  19.66  19.43 
 101 R200 - EY Legacy Builders 2019  06/11/2019 22:41 57  23.75  19.43 
 102 279 - Marko Baloh  06/12/2019 0:00 57  20.12  19.74 
 103 377 - Christoph Strasser  06/11/2019 23:53 57  20.85  20.1 
 104 T412 - Team Aspect  06/15/2019 22:33 57  21.38  20.24 
 105 T201 - EAT WELL  06/15/2019 22:06 57  20.73  20.53 
 106 R403 - Team Viasat-Denver  06/11/2019 22:02 57  21.92  20.72 
 107 T404 - Gentlemen of speed  06/15/2019 22:02 57  21.38  21.38 
 108 T411 - team alpha - tischlerei groemmer  06/15/2019 21:57 57  22.21  22.03 
 109 T401 - Data Techniques powered by Networks Centre  06/15/2019 21:42 57  22.8  22.31 
 110 R404 - Team Viasat - Carlsbad  06/11/2019 21:30 57  24.08  22.37 
 111 T800 - Backstedt Racing Project 14  06/15/2019 21:56 57  23.11  22.54